Time;durP1;ratioP1;P1;durP2;ratioP2;P2;SDS_P1;SDS_P2;PMS_P1;PMS_P2;Temp;Humidity;BMP_temperature;BMP_pressure;BME280_temperature;BME280_humidity;BME280_pressure;Samples;Min_cycle;Max_cycle;Signal;HPM_P1;HPM_P2
2021/09/26 00:00:00;;;;;;;2.08;0.82;;;;;;;18.03;72.04;100141.25;5087157;28;20044;-79
2021/09/26 00:02:27;;;;;;;2.92;0.95;;;;;;;18.00;72.44;100154.03;5084541;28;20858;-79
2021/09/26 00:04:56;;;;;;;1.17;0.80;;;;;;;17.96;72.45;100146.88;5087022;28;20128;-79
2021/09/26 00:07:23;;;;;;;4.82;1.08;;;;;;;17.91;72.82;100150.91;5088090;28;20036;-79
2021/09/26 00:09:49;;;;;;;2.28;1.45;;;;;;;17.90;72.89;100148.50;5087592;28;20040;-78
2021/09/26 00:12:16;;;;;;;1.80;1.33;;;;;;;17.92;73.06;100137.69;5086225;28;20036;-79
2021/09/26 00:14:43;;;;;;;1.08;0.70;;;;;;;17.89;73.11;100142.13;5084498;28;20036;-79
2021/09/26 00:17:10;;;;;;;1.88;0.70;;;;;;;17.88;73.37;100137.72;5086722;28;20032;-79
2021/09/26 00:19:37;;;;;;;3.28;0.85;;;;;;;17.85;73.46;100132.13;5086325;28;20040;-78
2021/09/26 00:22:04;;;;;;;2.15;1.10;;;;;;;17.86;73.64;100136.53;5088056;28;20048;-79
2021/09/26 00:24:31;;;;;;;2.35;1.50;;;;;;;17.83;73.81;100142.94;5087329;28;20047;-79
2021/09/26 00:26:58;;;;;;;1.50;1.00;;;;;;;17.80;73.75;100136.16;5086152;28;20044;-79
2021/09/26 00:29:26;;;;;;;2.47;0.75;;;;;;;17.76;73.89;100137.38;5087903;28;20492;-79
2021/09/26 00:31:53;;;;;;;1.65;1.05;;;;;;;17.79;73.62;100136.56;5087041;28;20039;-79
2021/09/26 00:34:21;;;;;;;2.75;1.10;;;;;;;17.81;73.49;100126.56;5084262;28;20043;-78
2021/09/26 00:36:48;;;;;;;2.35;1.00;;;;;;;17.81;73.76;100122.97;5085139;28;20048;-78
2021/09/26 00:39:14;;;;;;;2.10;1.00;;;;;;;17.76;74.14;100115.00;5084239;28;20060;-78
2021/09/26 00:41:41;;;;;;;0.50;0.43;;;;;;;17.75;73.67;100113.38;5087302;28;20036;-78
2021/09/26 00:44:08;;;;;;;1.00;0.50;;;;;;;17.74;73.80;100123.00;5086751;28;20076;-78
2021/09/26 00:46:35;;;;;;;1.60;0.28;;;;;;;17.73;73.67;100115.81;5085847;28;20086;-78
2021/09/26 00:49:02;;;;;;;1.27;0.45;;;;;;;17.70;73.45;100106.22;5084235;28;20063;-78
2021/09/26 00:51:29;;;;;;;0.63;0.28;;;;;;;17.73;73.17;100110.22;5085825;28;20052;-78
2021/09/26 00:53:55;;;;;;;1.17;0.47;;;;;;;17.76;73.05;100115.00;5086439;28;20484;-78
2021/09/26 00:56:22;;;;;;;1.55;0.60;;;;;;;17.76;73.00;100115.78;5087081;28;20039;-78
2021/09/26 00:58:49;;;;;;;4.57;3.15;;;;;;;17.76;72.76;100103.78;5085702;28;20054;-78
2021/09/26 01:01:17;;;;;;;2.67;1.00;;;;;;;17.71;72.92;100112.63;5086047;28;20114;-78
2021/09/26 01:03:44;;;;;;;1.20;0.80;;;;;;;17.66;73.19;100113.06;5086213;28;20051;-78
2021/09/26 01:06:44;;;;;;;2.00;0.90;;;;;;;17.58;73.79;100109.47;5086715;28;20051;-79
2021/09/26 01:09:40;;;;;;;0.90;0.63;;;;;;;17.53;73.88;100102.31;5069510;28;20055;-78
2021/09/26 01:12:09;;;;;;;3.05;0.90;;;;;;;17.47;74.25;100103.13;5083538;28;20054;-79
2021/09/26 01:15:04;;;;;;;2.67;0.60;;;;;;;17.38;74.78;100097.97;5085898;28;20040;-79
2021/09/26 01:17:49;;;;;;;1.83;0.77;;;;;;;17.36;74.95;100093.97;5085572;28;20036;-78
2021/09/26 01:20:34;;;;;;;0.43;0.43;;;;;;;17.34;74.81;100101.97;5087305;28;20089;-78
2021/09/26 01:23:03;;;;;;;0.93;0.50;;;;;;;17.28;75.26;100104.41;5083784;28;20044;-78
2021/09/26 01:25:49;;;;;;;1.25;0.70;;;;;;;17.27;75.33;100094.41;5085649;28;20123;-79
2021/09/26 01:28:16;;;;;;;0.80;0.50;;;;;;;17.29;75.03;100103.19;5085174;28;20044;-78
2021/09/26 01:30:57;;;;;;;0.45;0.43;;;;;;;17.25;75.42;100091.22;5084327;28;20040;-78
2021/09/26 01:33:31;;;;;;;2.50;0.43;;;;;;;17.28;75.04;100084.81;5082987;28;20628;-78
2021/09/26 01:36:50;;;;;;;1.58;0.40;;;;;;;17.26;75.03;100076.00;5086331;28;20130;-78
2021/09/26 01:39:46;;;;;;;1.88;1.15;;;;;;;17.24;74.96;100078.44;5024170;28;20083;-78
2021/09/26 01:42:21;;;;;;;1.58;0.55;;;;;;;17.24;74.70;100078.44;5080037;28;20504;-78
2021/09/26 01:44:55;;;;;;;1.08;0.68;;;;;;;17.20;74.65;100074.06;5083332;28;20084;-78
2021/09/26 01:47:30;;;;;;;0.28;0.22;;;;;;;17.18;75.06;100063.28;5084415;28;20074;-78
2021/09/26 01:50:00;;;;;;;1.15;0.22;;;;;;;17.20;74.91;100062.88;5086178;28;20036;-78
2021/09/26 01:52:33;;;;;;;0.32;0.20;;;;;;;17.16;74.94;100054.47;5083335;28;20090;-78
2021/09/26 01:55:02;;;;;;;0.85;0.52;;;;;;;17.17;74.65;100061.69;5068838;28;20048;-78
2021/09/26 01:57:30;;;;;;;0.88;0.30;;;;;;;17.20;74.52;100060.06;5085322;28;20040;-79
2021/09/26 01:59:59;;;;;;;0.75;0.63;;;;;;;17.18;74.67;100060.50;5084590;28;20036;-78
2021/09/26 02:02:27;;;;;;;0.50;0.50;;;;;;;17.17;74.68;100058.88;5066544;28;20487;-78
2021/09/26 02:04:59;;;;;;;0.35;0.35;;;;;;;17.15;74.62;100047.31;5080922;28;20044;-78
2021/09/26 02:07:28;;;;;;;0.93;0.80;;;;;;;17.12;74.77;100055.72;5083838;28;20032;-78
2021/09/26 02:09:56;;;;;;;1.92;0.45;;;;;;;17.07;75.01;100045.75;5085005;28;20072;-79
2021/09/26 02:12:24;;;;;;;1.20;0.75;;;;;;;16.99;75.15;100044.19;5083543;28;20151;-79
2021/09/26 02:14:51;;;;;;;1.05;0.63;;;;;;;16.97;75.33;100038.19;5085257;28;20036;-78
2021/09/26 02:17:20;;;;;;;2.85;0.70;;;;;;;16.95;75.29;100037.78;5086575;28;20123;-78
2021/09/26 02:19:49;;;;;;;1.23;0.82;;;;;;;16.91;75.48;100048.19;5086587;28;20040;-78
2021/09/26 02:22:17;;;;;;;2.55;1.30;;;;;;;16.89;75.51;100050.63;5088141;28;20410;-78
2021/09/26 02:24:44;;;;;;;1.42;0.90;;;;;;;16.88;75.70;100051.81;5089266;28;20051;-78
2021/09/26 02:27:11;;;;;;;1.40;0.70;;;;;;;16.87;75.57;100055.78;5087382;28;20062;-78
2021/09/26 02:29:38;;;;;;;1.05;0.30;;;;;;;16.84;75.78;100056.59;5090243;28;20051;-78
2021/09/26 02:32:05;;;;;;;0.93;0.50;;;;;;;16.82;75.85;100051.41;5088454;28;20044;-78
2021/09/26 02:34:32;;;;;;;1.17;0.50;;;;;;;16.85;75.68;100050.63;5087432;28;20070;-78
2021/09/26 02:36:59;;;;;;;0.30;0.30;;;;;;;16.84;76.16;100056.59;5086828;28;20059;-78
2021/09/26 02:39:25;;;;;;;0.90;0.20;;;;;;;16.85;76.04;100055.41;5071607;28;20060;-78
2021/09/26 02:42:05;;;;;;;0.98;0.43;;;;;;;16.85;76.04;100045.03;5089325;28;20054;-78
2021/09/26 02:44:55;;;;;;;2.58;1.65;;;;;;;16.85;76.05;100039.44;5089070;28;20052;-79
2021/09/26 02:47:26;;;;;;;0.25;0.25;;;;;;;16.84;75.94;100035.03;5088622;28;20071;-78
2021/09/26 02:49:53;;;;;;;0.20;0.20;;;;;;;16.86;75.94;100034.63;5090081;28;20062;-78
2021/09/26 02:52:23;;;;;;;1.60;0.30;;;;;;;16.83;75.70;100024.25;5085787;28;20048;-78
2021/09/26 02:54:50;;;;;;;1.92;0.50;;;;;;;16.85;75.94;100021.84;5089756;28;20055;-78
2021/09/26 02:57:17;;;;;;;0.63;0.45;;;;;;;16.82;75.84;100022.66;5058302;28;20533;-78
2021/09/26 02:59:44;;;;;;;0.45;0.35;;;;;;;16.82;76.04;100020.66;5090158;28;20081;-78
2021/09/26 03:02:11;;;;;;;0.68;0.45;;;;;;;16.82;75.80;100014.28;5089039;28;20044;-78
2021/09/26 03:04:46;;;;;;;0.57;0.40;;;;;;;16.79;76.05;100017.88;5088206;28;20101;-78
2021/09/26 03:07:14;;;;;;;0.68;0.43;;;;;;;16.80;75.97;100013.88;5087209;28;20442;-77
2021/09/26 03:09:41;;;;;;;0.82;0.43;;;;;;;16.73;76.10;100014.69;5088127;28;20063;-78
2021/09/26 03:12:13;;;;;;;1.38;0.40;;;;;;;16.67;76.35;100010.75;5086521;28;20059;-78
2021/09/26 03:14:40;;;;;;;1.02;0.75;;;;;;;16.67;76.36;100009.94;5088296;28;20407;-78
2021/09/26 03:17:07;;;;;;;0.63;0.40;;;;;;;16.66;76.33;100008.31;5088365;28;20048;-78
2021/09/26 03:19:34;;;;;;;0.43;0.43;;;;;;;16.62;76.51;100013.94;5089677;28;20036;-78
2021/09/26 03:22:02;;;;;;;1.13;0.50;;;;;;;16.59;77.05;100003.56;5086836;28;20043;-78
2021/09/26 03:24:31;;;;;;;0.68;0.35;;;;;;;16.58;76.72;99998.38;5102206;28;20048;-78
2021/09/26 03:27:00;;;;;;;1.55;0.32;;;;;;;16.57;77.09;100007.97;5081243;28;20042;-79
2021/09/26 03:29:27;;;;;;;0.30;0.30;;;;;;;16.56;77.05;100011.97;5087841;28;20035;-78
2021/09/26 03:31:54;;;;;;;0.20;0.20;;;;;;;16.52;77.21;100005.56;5085657;28;20058;-78
2021/09/26 03:34:20;;;;;;;2.35;0.50;;;;;;;16.51;77.54;100006.75;5089924;28;20040;-78
2021/09/26 03:36:47;;;;;;;0.90;0.70;;;;;;;16.50;77.42;99994.78;5087616;28;20044;-78
2021/09/26 03:39:14;;;;;;;0.88;0.50;;;;;;;16.50;77.56;99989.19;5085241;28;20062;-78
2021/09/26 03:41:40;;;;;;;1.75;1.30;;;;;;;16.49;77.59;99990.41;5087074;28;20036;-78
2021/09/26 03:44:07;;;;;;;1.73;0.80;;;;;;;16.50;77.70;99988.38;5088121;28;20035;-78
2021/09/26 03:46:34;;;;;;;2.78;0.63;;;;;;;16.49;77.80;99993.19;5088292;28;20051;-78
2021/09/26 03:49:01;;;;;;;0.65;0.50;;;;;;;16.51;77.59;99990.78;5088054;28;20044;-78
2021/09/26 03:51:28;;;;;;;0.63;0.60;;;;;;;16.52;77.67;99986.00;5086548;28;20040;-78
2021/09/26 03:53:54;;;;;;;0.60;0.40;;;;;;;16.48;77.83;99985.19;5087508;28;20101;-78
2021/09/26 03:56:21;;;;;;;1.77;0.30;;;;;;;16.49;78.00;99992.41;5085053;28;20044;-78
2021/09/26 03:58:48;;;;;;;0.63;0.35;;;;;;;16.49;78.16;99982.03;5085760;28;20480;-78
2021/09/26 04:01:14;;;;;;;2.30;0.40;;;;;;;16.52;78.36;99997.19;5086000;28;20068;-78
2021/09/26 04:03:42;;;;;;;0.60;0.40;;;;;;;16.53;78.33;99987.59;5086792;28;20071;-78
2021/09/26 04:06:11;;;;;;;1.00;0.30;;;;;;;16.57;78.51;99991.22;5086025;28;20040;-78
2021/09/26 04:08:39;;;;;;;1.60;0.50;;;;;;;16.59;78.60;99997.97;5087378;28;20040;-78
2021/09/26 04:11:08;;;;;;;0.65;0.22;;;;;;;16.59;78.63;99991.59;5087360;28;20127;-78
2021/09/26 04:13:36;;;;;;;1.38;0.25;;;;;;;16.61;78.85;99991.97;5085203;28;20046;-78
2021/09/26 04:16:03;;;;;;;1.08;0.30;;;;;;;16.65;78.97;100006.75;5083499;28;20040;-78
2021/09/26 04:18:29;;;;;;;0.75;0.30;;;;;;;16.65;79.21;99993.59;5086112;28;20841;-78
2021/09/26 04:20:56;;;;;;;0.80;0.47;;;;;;;16.66;79.63;99999.94;5084591;28;20082;-78
2021/09/26 04:23:23;;;;;;;2.40;0.60;;;;;;;16.67;79.45;99987.56;5085869;28;20122;-78
2021/09/26 04:25:50;;;;;;;0.68;0.63;;;;;;;16.68;79.65;99986.38;5086969;28;20090;-78
2021/09/26 04:28:16;;;;;;;2.90;1.17;;;;;;;16.72;79.63;99987.16;5087249;28;20059;-79
2021/09/26 04:30:43;;;;;;;1.27;1.00;;;;;;;16.75;79.76;99980.75;5084390;28;20134;-78
2021/09/26 04:33:10;;;;;;;2.38;1.42;;;;;;;16.75;79.55;99980.75;5069220;28;20063;-78
2021/09/26 04:35:36;;;;;;;2.17;1.10;;;;;;;16.76;79.82;99979.56;5087068;28;20404;-78
2021/09/26 04:38:03;;;;;;;2.65;1.70;;;;;;;16.75;79.95;99972.38;5083889;28;20080;-78
2021/09/26 04:40:30;;;;;;;0.77;0.60;;;;;;;16.75;79.85;99977.97;5088089;28;20046;-78
2021/09/26 04:42:57;;;;;;;1.25;0.70;;;;;;;16.72;79.52;99971.19;5068619;28;20140;-78
2021/09/26 04:45:26;;;;;;;3.80;0.88;;;;;;;16.66;79.46;99961.63;5084365;28;20080;-78
2021/09/26 04:47:53;;;;;;;0.82;0.40;;;;;;;16.60;79.81;99948.47;5084859;28;20044;-78
2021/09/26 04:50:20;;;;;;;0.82;0.65;;;;;;;16.53;80.24;99942.91;5101173;28;20139;-78
2021/09/26 04:52:46;;;;;;;0.95;0.28;;;;;;;16.48;80.28;99946.88;5087319;28;20044;-78
2021/09/26 04:55:13;;;;;;;2.78;0.40;;;;;;;16.47;80.51;99947.31;5086282;28;20036;-78
2021/09/26 04:57:40;;;;;;;1.30;0.30;;;;;;;16.44;80.69;99949.69;5086424;28;20040;-78
2021/09/26 05:00:08;;;;;;;1.17;0.20;;;;;;;16.43;80.79;99936.13;5087717;28;20043;-78
2021/09/26 05:02:35;;;;;;;0.68;0.20;;;;;;;16.42;81.13;99942.91;5097442;28;20050;-78
2021/09/26 05:05:02;;;;;;;0.15;0.15;;;;;;;16.39;81.37;99938.13;5086464;28;20036;-78
2021/09/26 05:07:28;;;;;;;0.20;0.10;;;;;;;16.37;81.77;99926.56;5087876;28;20044;-78
2021/09/26 05:09:55;;;;;;;0.28;0.20;;;;;;;16.35;81.58;99920.59;5085639;28;20138;-78
2021/09/26 05:12:22;;;;;;;1.00;0.10;;;;;;;16.33;81.71;99917.41;5084958;28;20063;-78
2021/09/26 05:14:48;;;;;;;0.47;0.30;;;;;;;16.30;82.16;99916.22;5087677;28;20036;-79
2021/09/26 05:17:16;;;;;;;0.05;0.00;;;;;;;16.27;82.28;99910.63;5102086;28;20062;-78
2021/09/26 05:19:46;;;;;;;0.08;0.00;;;;;;;16.25;82.45;99916.63;5085041;28;20036;-78
2021/09/26 05:22:12;;;;;;;0.00;0.00;;;;;;;16.23;82.48;99913.44;5087037;28;20130;-78
2021/09/26 05:24:40;;;;;;;1.75;0.38;;;;;;;16.21;82.66;99924.22;5085989;28;20536;-78
2021/09/26 05:27:07;;;;;;;0.95;0.20;;;;;;;16.19;82.70;99918.25;5083509;28;20093;-78
2021/09/26 05:29:33;;;;;;;2.08;0.20;;;;;;;16.18;82.93;99922.22;5084891;28;20040;-78
2021/09/26 05:32:00;;;;;;;0.28;0.20;;;;;;;16.21;83.14;99915.03;5058880;28;20058;-78
2021/09/26 05:34:29;;;;;;;0.63;0.20;;;;;;;16.20;83.04;99919.81;5086237;28;20078;-78
2021/09/26 05:36:56;;;;;;;0.68;0.30;;;;;;;16.21;82.92;99909.44;5086322;28;20044;-78
2021/09/26 05:39:25;;;;;;;2.00;0.40;;;;;;;16.19;83.00;99918.25;5086939;28;20057;-78
2021/09/26 05:41:53;;;;;;;0.70;0.32;;;;;;;16.17;82.80;99914.25;5083345;28;20506;-78
2021/09/26 05:44:20;;;;;;;1.73;0.25;;;;;;;16.14;82.86;99920.66;5084877;28;20046;-78
2021/09/26 05:46:50;;;;;;;4.18;0.47;;;;;;;16.13;82.81;99917.06;5085348;28;20157;-78
2021/09/26 05:49:16;;;;;;;0.77;0.30;;;;;;;16.09;83.11;99899.53;5087051;28;20051;-78
2021/09/26 05:51:43;;;;;;;0.73;0.40;;;;;;;16.06;83.10;99908.69;5084425;28;20028;-78
2021/09/26 05:54:10;;;;;;;1.50;1.20;;;;;;;16.03;83.32;99917.88;5085670;28;20036;-78
2021/09/26 05:56:36;;;;;;;1.85;0.30;;;;;;;16.04;83.32;99911.09;5089696;28;20050;-78
2021/09/26 05:59:03;;;;;;;3.30;0.50;;;;;;;16.04;83.35;99911.09;5089696;28;20479;-78
2021/09/26 06:01:30;;;;;;;1.95;0.50;;;;;;;16.05;83.40;99907.09;5089763;28;20390;-78
2021/09/26 06:03:57;;;;;;;0.88;0.60;;;;;;;16.03;83.71;99909.50;5089008;28;20110;-78
2021/09/26 06:06:23;;;;;;;1.90;0.40;;;;;;;16.01;83.79;99906.31;5089205;28;20134;-78
2021/09/26 06:08:50;;;;;;;0.30;0.25;;;;;;;16.01;83.68;99909.13;5088901;28;20040;-78
2021/09/26 06:11:17;;;;;;;0.32;0.30;;;;;;;16.05;83.48;99907.09;5088732;28;20064;-78
2021/09/26 06:13:43;;;;;;;1.13;0.50;;;;;;;16.09;83.40;99907.09;5070979;28;20083;-78
2021/09/26 06:16:10;;;;;;;1.75;0.50;;;;;;;16.08;83.13;99903.50;5088278;28;20044;-78
2021/09/26 06:18:37;;;;;;;2.75;0.60;;;;;;;16.08;82.96;99900.72;5087521;28;20048;-78
2021/09/26 06:21:04;;;;;;;3.38;1.30;;;;;;;16.04;83.16;99910.31;5088173;28;20036;-78
2021/09/26 06:23:31;;;;;;;12.93;2.20;;;;;;;16.00;83.23;99901.94;5089640;28;20495;-78
2021/09/26 06:26:00;;;;;;;1.92;0.65;;;;;;;16.02;83.28;99901.53;5089444;28;20131;-78
2021/09/26 06:28:27;;;;;;;1.45;0.40;;;;;;;16.02;83.25;99895.97;5090322;28;20052;-78
2021/09/26 06:30:53;;;;;;;0.98;0.40;;;;;;;16.01;83.09;99900.75;5087860;28;20048;-78
2021/09/26 06:33:20;;;;;;;0.43;0.40;;;;;;;16.02;82.99;99902.31;5088285;28;20507;-78
2021/09/26 06:35:47;;;;;;;1.08;0.30;;;;;;;16.00;82.85;99903.91;5078866;28;20127;-78
2021/09/26 06:38:14;;;;;;;1.90;0.30;;;;;;;15.99;82.91;99894.72;5089255;28;20052;-79
2021/09/26 06:40:41;;;;;;;0.70;0.32;;;;;;;15.97;82.95;99894.34;5088115;28;20471;-78
2021/09/26 06:43:07;;;;;;;1.10;0.40;;;;;;;15.94;83.04;99889.56;5088814;28;20047;-78
2021/09/26 06:45:34;;;;;;;0.52;0.22;;;;;;;15.96;82.73;99892.78;5086631;28;20082;-78
2021/09/26 06:48:01;;;;;;;0.28;0.20;;;;;;;15.97;82.49;99894.34;5089247;28;20086;-78
2021/09/26 06:50:28;;;;;;;0.35;0.35;;;;;;;16.01;82.28;99891.56;5087491;28;20048;-78
2021/09/26 06:52:55;;;;;;;1.45;0.35;;;;;;;16.04;81.97;99890.75;5087338;28;20048;-78
2021/09/26 06:55:21;;;;;;;0.40;0.40;;;;;;;16.09;81.76;99887.56;5087145;28;20036;-78
2021/09/26 06:57:48;;;;;;;1.08;0.50;;;;;;;16.13;81.60;99886.34;5086645;28;20044;-78
2021/09/26 07:00:15;;;;;;;0.52;0.30;;;;;;;16.17;81.43;99875.97;5087210;28;20047;-78
2021/09/26 07:02:43;;;;;;;0.77;0.30;;;;;;;16.18;81.22;99880.34;5085993;28;20048;-78
2021/09/26 07:05:11;;;;;;;0.45;0.30;;;;;;;16.19;81.19;99872.75;5087896;28;20186;-77
2021/09/26 07:07:38;;;;;;;1.23;0.30;;;;;;;16.21;81.10;99879.53;5088379;28;20113;-78
2021/09/26 07:10:05;;;;;;;0.38;0.10;;;;;;;16.27;81.02;99891.09;5089353;28;20040;-78
2021/09/26 07:12:32;;;;;;;0.50;0.40;;;;;;;16.32;80.95;99893.47;5087846;28;20119;-78
2021/09/26 07:15:01;;;;;;;1.50;0.10;;;;;;;16.37;80.86;99885.47;5090090;28;20123;-78
2021/09/26 07:17:29;;;;;;;0.03;0.03;;;;;;;16.43;80.74;99895.03;5088124;28;20071;-78
2021/09/26 07:19:56;;;;;;;1.02;0.50;;;;;;;16.50;80.55;99890.59;5087341;28;20050;-78
2021/09/26 07:22:25;;;;;;;0.25;0.20;;;;;;;16.58;80.58;99894.97;5087030;28;20124;-78
2021/09/26 07:24:54;;;;;;;0.25;0.10;;;;;;;16.64;80.28;99887.75;5088492;28;20400;-78
2021/09/26 07:27:22;;;;;;;0.25;0.00;;;;;;;16.71;80.38;99887.72;5087390;28;20047;-78
2021/09/26 07:29:49;;;;;;;0.25;0.10;;;;;;;16.76;80.05;99888.09;5086083;28;20047;-76
2021/09/26 07:32:17;;;;;;;0.00;0.00;;;;;;;16.83;79.96;99878.88;5086708;28;20040;-80
2021/09/26 07:34:44;;;;;;;0.25;0.20;;;;;;;16.94;79.93;99876.81;5087646;28;20115;-78
2021/09/26 07:37:11;;;;;;;0.32;0.10;;;;;;;17.05;79.95;99881.13;5085803;28;20055;-78
2021/09/26 07:39:38;;;;;;;1.15;0.22;;;;;;;17.17;79.53;99885.44;5086216;28;20050;-78
2021/09/26 07:42:05;;;;;;;0.75;0.10;;;;;;;17.27;79.22;99892.97;5087596;28;20043;-78
2021/09/26 07:44:32;;;;;;;0.20;0.10;;;;;;;17.34;78.58;99897.72;5087250;28;20052;-78
2021/09/26 07:46:59;;;;;;;0.10;0.10;;;;;;;17.38;78.43;99890.09;5087536;28;20044;-78
2021/09/26 07:49:26;;;;;;;1.27;0.10;;;;;;;17.39;78.38;99883.28;5088024;28;20105;-78
2021/09/26 07:51:52;;;;;;;0.00;0.00;;;;;;;17.40;78.12;99896.88;5088443;28;20040;-78
2021/09/26 07:54:21;;;;;;;0.10;0.00;;;;;;;17.43;77.91;99901.63;5088474;28;20119;-78
2021/09/26 07:56:47;;;;;;;0.25;0.10;;;;;;;17.43;77.65;99898.84;5088703;28;20044;-78
2021/09/26 07:59:14;;;;;;;0.15;0.10;;;;;;;17.47;77.80;99902.41;5086840;28;20054;-78
2021/09/26 08:01:41;;;;;;;0.35;0.13;;;;;;;17.48;77.51;99892.81;5088214;28;20044;-78
2021/09/26 08:04:08;;;;;;;0.10;0.00;;;;;;;17.54;77.55;99896.00;5087768;28;20044;-78
2021/09/26 08:06:35;;;;;;;0.15;0.10;;;;;;;17.63;77.65;99897.09;5084674;28;20043;-78
2021/09/26 08:09:03;;;;;;;0.20;0.20;;;;;;;17.74;77.45;99897.00;5066556;28;20040;-78
2021/09/26 08:11:30;;;;;;;0.10;0.10;;;;;;;17.81;77.58;99901.75;5085356;28;20040;-78
2021/09/26 08:13:57;;;;;;;0.30;0.30;;;;;;;17.84;77.70;99917.72;5084819;28;20050;-77
2021/09/26 08:16:24;;;;;;;0.68;0.20;;;;;;;17.83;77.65;99908.53;5085730;28;20125;-78
2021/09/26 08:18:51;;;;;;;0.10;0.10;;;;;;;17.82;77.64;99906.91;5084366;28;20127;-78
2021/09/26 08:21:18;;;;;;;0.20;0.10;;;;;;;17.83;77.52;99913.31;5078689;28;20036;-78
2021/09/26 08:23:45;;;;;;;0.43;0.17;;;;;;;17.80;77.39;99914.94;5085863;28;20032;-78
2021/09/26 08:26:12;;;;;;;0.20;0.20;;;;;;;17.77;77.15;99926.16;5086609;28;20052;-78
2021/09/26 08:28:39;;;;;;;0.10;0.00;;;;;;;17.74;76.68;99915.81;5087185;28;20040;-80
2021/09/26 08:31:06;;;;;;;0.82;0.30;;;;;;;17.73;76.37;99926.22;5086320;28;20063;-80
2021/09/26 08:33:33;;;;;;;0.30;0.10;;;;;;;17.73;75.97;99919.81;5087465;28;20104;-77
2021/09/26 08:35:59;;;;;;;0.75;0.30;;;;;;;17.71;75.54;99917.44;5087377;28;20048;-77
2021/09/26 08:38:26;;;;;;;0.50;0.20;;;;;;;17.70;75.40;99915.03;5087745;28;20039;-78
2021/09/26 08:40:54;;;;;;;1.58;0.22;;;;;;;17.71;75.18;99911.06;5086218;28;20052;-77
2021/09/26 08:43:21;;;;;;;3.60;0.30;;;;;;;17.72;75.12;99912.63;5083150;28;20119;-78
2021/09/26 08:45:48;;;;;;;5.35;0.38;;;;;;;17.73;74.62;99903.81;5084010;28;20418;-77
2021/09/26 08:48:15;;;;;;;0.68;0.30;;;;;;;17.74;74.16;99913.78;5084759;28;20044;-78
2021/09/26 08:50:43;;;;;;;2.85;0.68;;;;;;;17.78;74.04;99910.97;5085141;28;20126;-78
2021/09/26 08:53:10;;;;;;;1.52;0.20;;;;;;;17.83;73.88;99921.72;5085820;28;20046;-78
2021/09/26 08:55:37;;;;;;;1.95;0.70;;;;;;;17.84;73.78;99924.13;5085742;28;20040;-77
2021/09/26 08:58:04;;;;;;;2.08;0.47;;;;;;;17.89;73.24;99914.47;5086283;28;20126;-77
2021/09/26 09:00:31;;;;;;;1.17;0.20;;;;;;;17.95;73.26;99915.63;5078693;28;20044;-78
2021/09/26 09:03:00;;;;;;;1.85;0.35;;;;;;;18.02;73.15;99921.94;5080745;28;20040;-78
2021/09/26 09:05:38;;;;;;;0.50;0.20;;;;;;;18.07;72.19;99917.91;5080478;28;20506;-78
2021/09/26 09:08:16;;;;;;;3.33;0.63;;;;;;;18.04;71.74;99913.91;5082647;28;20042;-78
2021/09/26 09:10:52;;;;;;;1.45;0.43;;;;;;;18.04;71.44;99911.13;5083194;28;20472;-78
2021/09/26 09:13:33;;;;;;;2.25;0.75;;;;;;;18.08;71.27;99913.91;5082081;28;20510;-78
2021/09/26 09:16:01;;;;;;;1.00;0.43;;;;;;;18.27;72.40;99912.50;5081712;28;20036;-78
2021/09/26 09:18:41;;;;;;;3.75;0.63;;;;;;;18.46;71.31;99907.03;5081186;28;20058;-78
2021/09/26 09:21:23;;;;;;;2.50;0.52;;;;;;;18.81;70.69;99897.41;5082032;28;20543;-78
2021/09/26 09:24:14;;;;;;;2.20;0.40;;;;;;;19.61;71.01;99903.06;5080876;28;20480;-78
2021/09/26 09:26:44;;;;;;;3.92;0.57;;;;;;;20.03;69.72;99896.69;5079163;28;20469;-78
2021/09/26 09:29:13;;;;;;;2.72;0.40;;;;;;;20.52;69.05;99899.75;5081882;28;20159;-78
2021/09/26 09:31:49;;;;;;;1.92;0.45;;;;;;;21.18;65.60;99891.91;5086936;28;20052;-77
2021/09/26 09:34:36;;;;;;;2.83;0.50;;;;;;;21.85;65.19;99873.31;5085583;28;20488;-78
2021/09/26 09:37:22;;;;;;;1.25;0.47;;;;;;;22.64;64.81;99886.88;5086307;28;20036;-78
2021/09/26 09:40:17;;;;;;;1.63;0.38;;;;;;;23.21;60.05;99877.47;5087349;28;20930;-77
2021/09/26 09:42:55;;;;;;;1.60;0.57;;;;;;;23.02;59.10;99875.66;5087153;28;20048;-77
2021/09/26 09:45:26;;;;;;;3.17;0.70;;;;;;;23.28;59.88;99885.72;5081211;28;20040;-77
2021/09/26 09:47:59;;;;;;;3.00;0.52;;;;;;;23.68;57.23;99882.41;5084735;28;20040;-77
2021/09/26 09:50:47;;;;;;;3.20;0.85;;;;;;;23.59;56.12;99869.78;5087157;28;20054;-78
2021/09/26 09:53:28;;;;;;;2.65;0.60;;;;;;;23.43;53.51;99860.66;5086197;28;20046;-78
2021/09/26 09:56:10;;;;;;;0.90;0.60;;;;;;;23.61;54.84;99861.66;5086748;28;20677;-77
2021/09/26 09:58:42;;;;;;;2.42;0.80;;;;;;;23.93;55.42;99860.56;5086940;28;20051;-77
2021/09/26 10:01:16;;;;;;;2.65;0.60;;;;;;;24.47;54.21;99851.72;5088639;28;20040;-77
2021/09/26 10:03:53;;;;;;;1.60;0.50;;;;;;;24.35;52.01;99855.41;5088084;28;20040;-77
2021/09/26 10:06:27;;;;;;;4.80;0.80;;;;;;;24.50;51.41;99847.97;5086248;28;20047;-77
2021/09/26 10:09:00;;;;;;;2.63;1.02;;;;;;;24.71;51.87;99855.66;5086444;28;20047;-78
2021/09/26 10:11:31;;;;;;;4.13;0.52;;;;;;;24.79;50.56;99859.03;5087151;28;20063;-77
2021/09/26 10:13:59;;;;;;;3.65;0.85;;;;;;;24.42;51.33;99860.00;5086337;28;20087;-77
2021/09/26 10:16:26;;;;;;;2.17;0.73;;;;;;;24.04;51.53;99858.09;5084697;28;20078;-77
2021/09/26 10:18:54;;;;;;;2.17;0.40;;;;;;;23.95;51.96;99852.38;5101970;28;20089;-77
2021/09/26 10:21:22;;;;;;;4.28;0.60;;;;;;;23.93;51.42;99862.59;5085917;28;20043;-77
2021/09/26 10:23:50;;;;;;;2.85;0.52;;;;;;;23.76;51.39;99855.50;5085456;28;20052;-77
2021/09/26 10:26:19;;;;;;;5.15;0.77;;;;;;;23.67;51.16;99853.34;5086664;28;20050;-78
2021/09/26 10:28:50;;;;;;;3.42;0.88;;;;;;;23.64;51.13;99838.09;5087223;28;20040;-79
2021/09/26 10:31:17;;;;;;;;;;;;;;;23.17;50.59;99842.09;5088156;28;20048;-80
2021/09/26 10:33:46;;;;;;;1.15;0.35;;;;;;;22.91;52.29;99836.47;5069593;28;19931;-77
2021/09/26 10:36:18;;;;;;;2.85;1.05;;;;;;;22.72;52.17;99842.31;5087953;28;20043;-79
2021/09/26 10:38:48;;;;;;;4.47;0.70;;;;;;;23.00;51.93;99838.63;5085743;28;20071;-79
2021/09/26 10:41:16;;;;;;;3.20;1.00;;;;;;;23.30;51.63;99835.19;5087357;28;20048;-77
2021/09/26 10:43:43;;;;;;;2.67;0.50;;;;;;;23.41;51.41;99838.50;5087692;28;20035;-77
2021/09/26 10:46:19;;;;;;;4.22;0.98;;;;;;;23.26;50.95;99850.69;5086936;28;20052;-76
2021/09/26 10:49:12;;;;;;;3.63;0.60;;;;;;;23.01;50.89;99843.00;5083701;28;20056;-77
2021/09/26 10:51:47;;;;;;;4.32;1.08;;;;;;;23.01;51.26;99851.47;5084842;28;20059;-77
2021/09/26 10:54:28;;;;;;;4.65;0.90;;;;;;;23.00;51.09;99835.81;5085785;28;20032;-77
2021/09/26 10:57:03;;;;;;;2.92;0.47;;;;;;;23.05;51.52;99832.41;5085244;28;20480;-77
2021/09/26 10:59:38;;;;;;;1.85;0.50;;;;;;;23.12;50.46;99845.50;5087147;28;20044;-77
2021/09/26 11:02:23;;;;;;;2.58;0.68;;;;;;;22.85;50.35;99829.00;5085040;28;20032;-76
2021/09/26 11:04:54;;;;;;;3.45;0.57;;;;;;;22.73;51.41;99847.53;5087320;28;20055;-77
2021/09/26 11:07:29;;;;;;;5.20;0.60;;;;;;;22.41;51.86;99831.50;5076469;28;20039;-77
2021/09/26 11:09:55;;;;;;;4.28;0.68;;;;;;;22.27;52.58;99831.91;5080630;28;20032;-77
2021/09/26 11:12:42;;;;;;;3.25;0.65;;;;;;;22.18;52.88;99814.88;5084682;28;20046;-77
2021/09/26 11:15:09;;;;;;;2.95;0.57;;;;;;;22.17;53.30;99827.38;5087491;28;20097;-78
2021/09/26 11:17:47;;;;;;;4.15;0.52;;;;;;;22.09;52.69;99816.75;5086510;28;20050;-79
2021/09/26 11:20:29;;;;;;;4.13;0.90;;;;;;;21.85;52.73;99828.25;5071573;28;20445;-79
2021/09/26 11:23:08;;;;;;;;;;;;;;;21.56;53.12;99801.25;5086842;28;20043;-78
2021/09/26 11:25:57;;;;;;;6.13;0.52;;;;;;;21.40;53.91;99806.91;5087260;28;20379;-78
2021/09/26 11:28:29;;;;;;;1.23;0.47;;;;;;;21.21;54.23;99809.38;5086278;28;20047;-79
2021/09/26 11:30:57;;;;;;;1.63;0.50;;;;;;;21.26;54.55;99807.28;5087645;28;20044;-78
2021/09/26 11:33:25;;;;;;;2.47;0.47;;;;;;;21.32;55.12;99799.88;5087377;28;20036;-78
2021/09/26 11:35:52;;;;;;;3.78;0.60;;;;;;;21.40;54.99;99801.28;5086498;28;20043;-78
2021/09/26 11:38:36;;;;;;;2.05;0.40;;;;;;;21.39;55.30;99825.06;5089112;28;20060;-78
2021/09/26 11:41:05;;;;;;;4.20;0.68;;;;;;;21.27;55.17;99808.84;5088104;28;20123;-79
2021/09/26 11:43:41;;;;;;;2.03;0.52;;;;;;;21.12;55.57;99819.69;5086940;28;20028;-78